sensor_id;sensor_type;location;lat;lon;timestamp;temperature;humidity
40538;DHT22;27925;41.874;12.526;2023-03-31T00:01:35;15.70;75.40
40538;DHT22;27925;41.874;12.526;2023-03-31T00:04:07;15.70;75.40
40538;DHT22;27925;41.874;12.526;2023-03-31T00:06:37;15.70;75.50
40538;DHT22;27925;41.874;12.526;2023-03-31T00:09:14;15.70;75.40
40538;DHT22;27925;41.874;12.526;2023-03-31T00:11:44;15.70;75.40
40538;DHT22;27925;41.874;12.526;2023-03-31T00:14:10;15.70;75.20
40538;DHT22;27925;41.874;12.526;2023-03-31T00:16:37;15.70;75.10
40538;DHT22;27925;41.874;12.526;2023-03-31T00:19:04;15.60;74.80
40538;DHT22;27925;41.874;12.526;2023-03-31T00:21:30;15.50;74.70
40538;DHT22;27925;41.874;12.526;2023-03-31T00:24:11;15.50;75.20
40538;DHT22;27925;41.874;12.526;2023-03-31T00:26:37;15.40;74.90
40538;DHT22;27925;41.874;12.526;2023-03-31T00:29:04;15.40;74.90
40538;DHT22;27925;41.874;12.526;2023-03-31T00:31:30;15.30;74.90
40538;DHT22;27925;41.874;12.526;2023-03-31T00:33:57;15.30;74.90
40538;DHT22;27925;41.874;12.526;2023-03-31T00:36:23;15.30;75.00
40538;DHT22;27925;41.874;12.526;2023-03-31T00:39:04;15.30;74.70
40538;DHT22;27925;41.874;12.526;2023-03-31T00:41:35;15.30;74.80
40538;DHT22;27925;41.874;12.526;2023-03-31T00:51:53;15.30;74.30
40538;DHT22;27925;41.874;12.526;2023-03-31T00:54:19;15.30;74.10
40538;DHT22;27925;41.874;12.526;2023-03-31T00:56:47;15.30;74.10
40538;DHT22;27925;41.874;12.526;2023-03-31T00:59:14;15.20;74.00
40538;DHT22;27925;41.874;12.526;2023-03-31T01:01:41;15.20;74.00
40538;DHT22;27925;41.874;12.526;2023-03-31T01:04:09;15.20;73.90
40538;DHT22;27925;41.874;12.526;2023-03-31T01:06:48;15.10;73.80
40538;DHT22;27925;41.874;12.526;2023-03-31T01:09:23;15.10;74.00
40538;DHT22;27925;41.874;12.526;2023-03-31T01:11:49;15.10;74.00
40538;DHT22;27925;41.874;12.526;2023-03-31T01:14:15;15.00;73.80
40538;DHT22;27925;41.874;12.526;2023-03-31T01:16:41;15.00;73.70
40538;DHT22;27925;41.874;12.526;2023-03-31T01:19:16;15.00;73.80
40538;DHT22;27925;41.874;12.526;2023-03-31T01:27:25;15.00;73.90
40538;DHT22;27925;41.874;12.526;2023-03-31T01:46:36;15.10;73.20
40538;DHT22;27925;41.874;12.526;2023-03-31T01:49:28;15.00;73.10
40538;DHT22;27925;41.874;12.526;2023-03-31T01:52:55;14.90;73.30
40538;DHT22;27925;41.874;12.526;2023-03-31T01:55:18;15.00;73.50
40538;DHT22;27925;41.874;12.526;2023-03-31T01:57:51;15.00;73.70
40538;DHT22;27925;41.874;12.526;2023-03-31T02:00:22;15.00;73.20
40538;DHT22;27925;41.874;12.526;2023-03-31T02:02:57;15.00;73.10
40538;DHT22;27925;41.874;12.526;2023-03-31T02:05:26;15.00;73.40
40538;DHT22;27925;41.874;12.526;2023-03-31T02:08:06;15.10;73.10
40538;DHT22;27925;41.874;12.526;2023-03-31T02:10:34;15.10;73.30
40538;DHT22;27925;41.874;12.526;2023-03-31T02:13:01;15.10;72.80
40538;DHT22;27925;41.874;12.526;2023-03-31T02:15:32;15.10;73.00
40538;DHT22;27925;41.874;12.526;2023-03-31T02:18:01;15.10;73.00
40538;DHT22;27925;41.874;12.526;2023-03-31T02:20:31;15.10;72.90
40538;DHT22;27925;41.874;12.526;2023-03-31T02:22:58;15.20;72.80
40538;DHT22;27925;41.874;12.526;2023-03-31T02:25:33;15.20;72.80
40538;DHT22;27925;41.874;12.526;2023-03-31T02:28:05;15.20;73.30
40538;DHT22;27925;41.874;12.526;2023-03-31T02:33:23;15.20;73.50
40538;DHT22;27925;41.874;12.526;2023-03-31T02:35:49;15.10;72.80
40538;DHT22;27925;41.874;12.526;2023-03-31T02:38:16;15.20;73.00
40538;DHT22;27925;41.874;12.526;2023-03-31T02:40:42;15.20;72.80
40538;DHT22;27925;41.874;12.526;2023-03-31T02:43:08;15.20;72.90
40538;DHT22;27925;41.874;12.526;2023-03-31T02:45:48;15.10;72.70
40538;DHT22;27925;41.874;12.526;2023-03-31T02:48:28;15.10;72.80
40538;DHT22;27925;41.874;12.526;2023-03-31T02:51:00;15.10;73.10
40538;DHT22;27925;41.874;12.526;2023-03-31T02:53:47;15.00;72.60
40538;DHT22;27925;41.874;12.526;2023-03-31T03:07:41;14.90;72.70
40538;DHT22;27925;41.874;12.526;2023-03-31T03:10:04;14.90;72.80
40538;DHT22;27925;41.874;12.526;2023-03-31T03:12:32;14.80;72.80
40538;DHT22;27925;41.874;12.526;2023-03-31T03:17:46;14.70;72.80
40538;DHT22;27925;41.874;12.526;2023-03-31T03:20:14;14.70;73.10
40538;DHT22;27925;41.874;12.526;2023-03-31T03:22:41;14.80;72.90
40538;DHT22;27925;41.874;12.526;2023-03-31T03:25:09;14.80;72.80
40538;DHT22;27925;41.874;12.526;2023-03-31T03:27:36;14.80;72.60
40538;DHT22;27925;41.874;12.526;2023-03-31T03:30:04;14.80;72.60
40538;DHT22;27925;41.874;12.526;2023-03-31T03:32:30;14.80;72.50
40538;DHT22;27925;41.874;12.526;2023-03-31T03:34:56;14.80;72.50
40538;DHT22;27925;41.874;12.526;2023-03-31T03:37:22;14.80;72.20
40538;DHT22;27925;41.874;12.526;2023-03-31T03:39:47;14.90;72.40
40538;DHT22;27925;41.874;12.526;2023-03-31T03:42:13;14.80;71.90
40538;DHT22;27925;41.874;12.526;2023-03-31T03:44:39;14.70;72.20
40538;DHT22;27925;41.874;12.526;2023-03-31T03:47:04;14.70;72.40
40538;DHT22;27925;41.874;12.526;2023-03-31T03:49:30;14.70;72.20
40538;DHT22;27925;41.874;12.526;2023-03-31T03:51:56;14.70;72.20
40538;DHT22;27925;41.874;12.526;2023-03-31T03:54:22;14.70;72.10
40538;DHT22;27925;41.874;12.526;2023-03-31T03:56:48;14.60;72.10
40538;DHT22;27925;41.874;12.526;2023-03-31T03:59:14;14.60;72.10
40538;DHT22;27925;41.874;12.526;2023-03-31T04:01:39;14.60;72.10
40538;DHT22;27925;41.874;12.526;2023-03-31T04:04:05;14.70;72.30
40538;DHT22;27925;41.874;12.526;2023-03-31T04:06:31;14.60;72.00
40538;DHT22;27925;41.874;12.526;2023-03-31T04:08:57;14.70;72.20
40538;DHT22;27925;41.874;12.526;2023-03-31T04:11:22;14.80;72.30
40538;DHT22;27925;41.874;12.526;2023-03-31T04:13:48;14.80;72.00
40538;DHT22;27925;41.874;12.526;2023-03-31T04:16:14;14.80;72.10
40538;DHT22;27925;41.874;12.526;2023-03-31T04:18:41;14.90;72.00
40538;DHT22;27925;41.874;12.526;2023-03-31T04:21:11;14.80;72.20
40538;DHT22;27925;41.874;12.526;2023-03-31T04:23:41;14.80;72.00
40538;DHT22;27925;41.874;12.526;2023-03-31T04:26:14;14.80;72.10
40538;DHT22;27925;41.874;12.526;2023-03-31T04:28:41;14.90;71.90
40538;DHT22;27925;41.874;12.526;2023-03-31T04:31:11;14.80;72.00
40538;DHT22;27925;41.874;12.526;2023-03-31T04:33:41;14.80;71.90
40538;DHT22;27925;41.874;12.526;2023-03-31T04:36:10;14.90;72.10
40538;DHT22;27925;41.874;12.526;2023-03-31T04:38:42;14.80;71.90
40538;DHT22;27925;41.874;12.526;2023-03-31T04:41:14;14.80;72.10
40538;DHT22;27925;41.874;12.526;2023-03-31T04:43:40;14.80;72.40
40538;DHT22;27925;41.874;12.526;2023-03-31T04:46:06;14.80;72.20
40538;DHT22;27925;41.874;12.526;2023-03-31T04:48:31;14.80;72.20
40538;DHT22;27925;41.874;12.526;2023-03-31T04:50:57;14.80;72.20
40538;DHT22;27925;41.874;12.526;2023-03-31T04:53:23;14.80;72.20
40538;DHT22;27925;41.874;12.526;2023-03-31T04:55:49;14.80;72.20
40538;DHT22;27925;41.874;12.526;2023-03-31T04:58:15;14.80;72.20
40538;DHT22;27925;41.874;12.526;2023-03-31T05:00:41;14.80;72.30
40538;DHT22;27925;41.874;12.526;2023-03-31T05:03:07;14.80;72.20
40538;DHT22;27925;41.874;12.526;2023-03-31T05:05:34;14.80;72.20
40538;DHT22;27925;41.874;12.526;2023-03-31T05:08:00;14.80;72.10
40538;DHT22;27925;41.874;12.526;2023-03-31T05:10:26;14.90;72.30
40538;DHT22;27925;41.874;12.526;2023-03-31T05:12:52;14.90;72.20
40538;DHT22;27925;41.874;12.526;2023-03-31T05:15:17;14.90;72.20
40538;DHT22;27925;41.874;12.526;2023-03-31T05:17:43;14.80;72.20
40538;DHT22;27925;41.874;12.526;2023-03-31T05:20:10;14.80;72.20
40538;DHT22;27925;41.874;12.526;2023-03-31T05:22:37;14.70;72.30
40538;DHT22;27925;41.874;12.526;2023-03-31T05:25:05;14.70;72.30
40538;DHT22;27925;41.874;12.526;2023-03-31T05:27:31;14.70;72.30
40538;DHT22;27925;41.874;12.526;2023-03-31T05:29:58;14.60;72.30
40538;DHT22;27925;41.874;12.526;2023-03-31T05:32:24;14.60;72.30
40538;DHT22;27925;41.874;12.526;2023-03-31T05:34:51;14.60;72.30
40538;DHT22;27925;41.874;12.526;2023-03-31T05:37:19;14.60;72.60
40538;DHT22;27925;41.874;12.526;2023-03-31T05:39:44;14.60;72.60
40538;DHT22;27925;41.874;12.526;2023-03-31T05:42:10;14.70;72.60
40538;DHT22;27925;41.874;12.526;2023-03-31T05:44:36;14.80;72.60
40538;DHT22;27925;41.874;12.526;2023-03-31T05:47:02;14.80;72.40
40538;DHT22;27925;41.874;12.526;2023-03-31T05:49:28;14.90;72.30
40538;DHT22;27925;41.874;12.526;2023-03-31T05:51:54;15.00;71.90
40538;DHT22;27925;41.874;12.526;2023-03-31T05:54:20;15.10;71.80
40538;DHT22;27925;41.874;12.526;2023-03-31T05:56:47;15.10;71.70
40538;DHT22;27925;41.874;12.526;2023-03-31T05:59:13;15.20;71.50
40538;DHT22;27925;41.874;12.526;2023-03-31T06:01:39;15.20;71.40
40538;DHT22;27925;41.874;12.526;2023-03-31T06:04:04;15.30;71.00
40538;DHT22;27925;41.874;12.526;2023-03-31T06:06:30;15.40;70.80
40538;DHT22;27925;41.874;12.526;2023-03-31T06:08:57;15.40;70.60
40538;DHT22;27925;41.874;12.526;2023-03-31T06:11:23;15.50;70.40
40538;DHT22;27925;41.874;12.526;2023-03-31T06:13:49;15.70;70.00
40538;DHT22;27925;41.874;12.526;2023-03-31T06:16:16;15.70;69.50
40538;DHT22;27925;41.874;12.526;2023-03-31T06:18:42;15.80;69.40
40538;DHT22;27925;41.874;12.526;2023-03-31T06:21:11;15.90;69.30
40538;DHT22;27925;41.874;12.526;2023-03-31T06:23:38;16.10;68.50
40538;DHT22;27925;41.874;12.526;2023-03-31T06:26:06;16.20;68.40
40538;DHT22;27925;41.874;12.526;2023-03-31T06:28:33;16.40;67.80
40538;DHT22;27925;41.874;12.526;2023-03-31T06:33:26;16.70;67.30
40538;DHT22;27925;41.874;12.526;2023-03-31T06:35:55;17.00;67.00
40538;DHT22;27925;41.874;12.526;2023-03-31T06:38:22;17.20;66.40
40538;DHT22;27925;41.874;12.526;2023-03-31T06:40:48;17.30;66.10
40538;DHT22;27925;41.874;12.526;2023-03-31T06:43:14;17.30;65.80
40538;DHT22;27925;41.874;12.526;2023-03-31T06:45:39;17.10;66.10
40538;DHT22;27925;41.874;12.526;2023-03-31T06:48:05;17.00;66.20
40538;DHT22;27925;41.874;12.526;2023-03-31T06:50:31;17.00;66.50
40538;DHT22;27925;41.874;12.526;2023-03-31T06:52:57;17.10;66.70
40538;DHT22;27925;41.874;12.526;2023-03-31T06:55:23;17.10;66.40
40538;DHT22;27925;41.874;12.526;2023-03-31T06:57:49;17.00;66.20
40538;DHT22;27925;41.874;12.526;2023-03-31T07:00:15;17.10;66.40
40538;DHT22;27925;41.874;12.526;2023-03-31T07:02:41;17.10;66.40
40538;DHT22;27925;41.874;12.526;2023-03-31T07:05:07;17.10;66.30
40538;DHT22;27925;41.874;12.526;2023-03-31T07:07:33;17.20;66.30
40538;DHT22;27925;41.874;12.526;2023-03-31T07:09:59;17.30;66.40
40538;DHT22;27925;41.874;12.526;2023-03-31T07:12:25;17.30;66.10
40538;DHT22;27925;41.874;12.526;2023-03-31T07:14:50;17.30;66.10
40538;DHT22;27925;41.874;12.526;2023-03-31T07:17:16;17.30;66.20
40538;DHT22;27925;41.874;12.526;2023-03-31T07:19:42;17.30;66.00
40538;DHT22;27925;41.874;12.526;2023-03-31T07:22:12;17.40;66.00
40538;DHT22;27925;41.874;12.526;2023-03-31T07:24:39;17.50;66.00
40538;DHT22;27925;41.874;12.526;2023-03-31T07:27:04;17.50;66.10
40538;DHT22;27925;41.874;12.526;2023-03-31T07:29:30;17.60;65.90
40538;DHT22;27925;41.874;12.526;2023-03-31T07:31:56;17.50;65.90
40538;DHT22;27925;41.874;12.526;2023-03-31T07:34:22;17.60;65.80
40538;DHT22;27925;41.874;12.526;2023-03-31T07:36:48;17.60;65.60
40538;DHT22;27925;41.874;12.526;2023-03-31T07:39:13;17.60;65.70
40538;DHT22;27925;41.874;12.526;2023-03-31T07:41:39;17.70;65.80
40538;DHT22;27925;41.874;12.526;2023-03-31T07:44:05;17.70;65.60
40538;DHT22;27925;41.874;12.526;2023-03-31T07:46:30;17.80;65.50
40538;DHT22;27925;41.874;12.526;2023-03-31T07:48:57;17.80;65.50
40538;DHT22;27925;41.874;12.526;2023-03-31T07:51:25;17.90;65.50
40538;DHT22;27925;41.874;12.526;2023-03-31T07:53:51;18.00;65.40
40538;DHT22;27925;41.874;12.526;2023-03-31T07:56:18;18.10;65.30
40538;DHT22;27925;41.874;12.526;2023-03-31T07:58:45;18.10;65.10
40538;DHT22;27925;41.874;12.526;2023-03-31T08:01:16;18.20;65.30
40538;DHT22;27925;41.874;12.526;2023-03-31T08:03:43;18.30;65.10
40538;DHT22;27925;41.874;12.526;2023-03-31T08:06:09;18.30;65.10
40538;DHT22;27925;41.874;12.526;2023-03-31T08:08:34;18.30;65.00
40538;DHT22;27925;41.874;12.526;2023-03-31T08:11:03;18.30;65.30
40538;DHT22;27925;41.874;12.526;2023-03-31T08:13:29;18.30;65.30
40538;DHT22;27925;41.874;12.526;2023-03-31T08:15:55;18.30;65.10
40538;DHT22;27925;41.874;12.526;2023-03-31T08:18:21;18.40;64.80
40538;DHT22;27925;41.874;12.526;2023-03-31T08:20:46;18.40;64.80
40538;DHT22;27925;41.874;12.526;2023-03-31T08:23:14;18.50;64.90
40538;DHT22;27925;41.874;12.526;2023-03-31T08:25:40;18.50;64.80
40538;DHT22;27925;41.874;12.526;2023-03-31T08:28:06;18.50;64.60
40538;DHT22;27925;41.874;12.526;2023-03-31T08:30:36;18.50;64.70
40538;DHT22;27925;41.874;12.526;2023-03-31T08:33:03;18.50;64.40
40538;DHT22;27925;41.874;12.526;2023-03-31T08:35:28;18.50;64.40
40538;DHT22;27925;41.874;12.526;2023-03-31T08:37:54;18.50;64.30
40538;DHT22;27925;41.874;12.526;2023-03-31T08:40:23;18.50;64.50
40538;DHT22;27925;41.874;12.526;2023-03-31T08:43:11;18.50;64.30
40538;DHT22;27925;41.874;12.526;2023-03-31T08:45:41;18.50;64.50
40538;DHT22;27925;41.874;12.526;2023-03-31T08:48:19;18.60;64.40
40538;DHT22;27925;41.874;12.526;2023-03-31T08:50:56;18.60;64.50
40538;DHT22;27925;41.874;12.526;2023-03-31T08:53:24;18.80;64.80
40538;DHT22;27925;41.874;12.526;2023-03-31T08:55:55;18.80;64.70
40538;DHT22;27925;41.874;12.526;2023-03-31T08:58:45;18.80;64.50
40538;DHT22;27925;41.874;12.526;2023-03-31T09:04:11;19.00;64.40
40538;DHT22;27925;41.874;12.526;2023-03-31T09:06:57;19.00;64.40
40538;DHT22;27925;41.874;12.526;2023-03-31T09:12:17;19.10;64.50
40538;DHT22;27925;41.874;12.526;2023-03-31T09:14:59;19.10;64.50
40538;DHT22;27925;41.874;12.526;2023-03-31T09:17:39;19.10;64.60
40538;DHT22;27925;41.874;12.526;2023-03-31T09:20:33;19.20;64.40
40538;DHT22;27925;41.874;12.526;2023-03-31T09:23:12;19.20;64.20
40538;DHT22;27925;41.874;12.526;2023-03-31T09:25:43;19.10;64.80
40538;DHT22;27925;41.874;12.526;2023-03-31T09:28:20;19.10;64.60
40538;DHT22;27925;41.874;12.526;2023-03-31T09:30:47;19.20;65.10
40538;DHT22;27925;41.874;12.526;2023-03-31T09:33:28;19.10;64.80
40538;DHT22;27925;41.874;12.526;2023-03-31T09:36:00;19.20;65.00
40538;DHT22;27925;41.874;12.526;2023-03-31T09:38:27;19.30;65.10
40538;DHT22;27925;41.874;12.526;2023-03-31T09:40:58;19.30;65.30
40538;DHT22;27925;41.874;12.526;2023-03-31T09:43:26;19.30;65.50
40538;DHT22;27925;41.874;12.526;2023-03-31T09:45:54;19.40;65.20
40538;DHT22;27925;41.874;12.526;2023-03-31T09:48:27;19.30;65.40
40538;DHT22;27925;41.874;12.526;2023-03-31T09:51:04;19.40;65.20
40538;DHT22;27925;41.874;12.526;2023-03-31T09:54:21;19.50;65.20
40538;DHT22;27925;41.874;12.526;2023-03-31T09:56:33;19.50;65.00
40538;DHT22;27925;41.874;12.526;2023-03-31T09:59:02;19.60;65.10
40538;DHT22;27925;41.874;12.526;2023-03-31T10:01:28;19.70;64.90
40538;DHT22;27925;41.874;12.526;2023-03-31T10:03:55;19.70;64.80
40538;DHT22;27925;41.874;12.526;2023-03-31T10:06:22;19.70;64.70
40538;DHT22;27925;41.874;12.526;2023-03-31T10:08:58;19.80;64.80
40538;DHT22;27925;41.874;12.526;2023-03-31T10:11:25;19.80;64.80
40538;DHT22;27925;41.874;12.526;2023-03-31T10:14:13;19.90;64.30
40538;DHT22;27925;41.874;12.526;2023-03-31T10:19:17;20.10;64.20
40538;DHT22;27925;41.874;12.526;2023-03-31T10:21:46;20.30;64.20
40538;DHT22;27925;41.874;12.526;2023-03-31T10:24:17;20.30;63.80
40538;DHT22;27925;41.874;12.526;2023-03-31T10:26:47;20.20;63.60
40538;DHT22;27925;41.874;12.526;2023-03-31T10:29:28;20.10;63.60
40538;DHT22;27925;41.874;12.526;2023-03-31T10:31:55;20.10;63.80
40538;DHT22;27925;41.874;12.526;2023-03-31T10:34:21;20.10;64.10
40538;DHT22;27925;41.874;12.526;2023-03-31T10:36:50;20.20;63.80
40538;DHT22;27925;41.874;12.526;2023-03-31T10:39:17;20.10;64.10
40538;DHT22;27925;41.874;12.526;2023-03-31T10:41:51;20.10;65.40
40538;DHT22;27925;41.874;12.526;2023-03-31T10:44:38;20.20;64.50
40538;DHT22;27925;41.874;12.526;2023-03-31T10:47:24;20.10;64.70
40538;DHT22;27925;41.874;12.526;2023-03-31T10:49:55;20.20;64.10
40538;DHT22;27925;41.874;12.526;2023-03-31T10:52:25;20.20;63.70
40538;DHT22;27925;41.874;12.526;2023-03-31T10:54:59;20.30;64.40
40538;DHT22;27925;41.874;12.526;2023-03-31T10:57:52;20.30;63.50
40538;DHT22;27925;41.874;12.526;2023-03-31T11:00:30;20.30;63.80
40538;DHT22;27925;41.874;12.526;2023-03-31T11:05:48;20.50;63.70
40538;DHT22;27925;41.874;12.526;2023-03-31T11:11:42;20.60;63.60
40538;DHT22;27925;41.874;12.526;2023-03-31T11:19:52;20.80;63.40
40538;DHT22;27925;41.874;12.526;2023-03-31T11:22:25;20.80;62.70
40538;DHT22;27925;41.874;12.526;2023-03-31T11:25:17;20.80;62.50
40538;DHT22;27925;41.874;12.526;2023-03-31T11:36:18;20.40;63.00
40538;DHT22;27925;41.874;12.526;2023-03-31T11:38:58;20.50;62.70
40538;DHT22;27925;41.874;12.526;2023-03-31T11:41:46;20.50;62.80
40538;DHT22;27925;41.874;12.526;2023-03-31T11:44:16;20.50;62.60
40538;DHT22;27925;41.874;12.526;2023-03-31T11:47:08;20.50;62.30
40538;DHT22;27925;41.874;12.526;2023-03-31T11:49:58;20.60;62.50
40538;DHT22;27925;41.874;12.526;2023-03-31T11:52:42;20.70;62.60
40538;DHT22;27925;41.874;12.526;2023-03-31T11:55:15;20.80;62.40
40538;DHT22;27925;41.874;12.526;2023-03-31T11:58:04;20.80;62.40
40538;DHT22;27925;41.874;12.526;2023-03-31T12:00:50;20.70;62.70
40538;DHT22;27925;41.874;12.526;2023-03-31T12:03:55;20.80;63.50
40538;DHT22;27925;41.874;12.526;2023-03-31T12:06:27;20.90;62.20
40538;DHT22;27925;41.874;12.526;2023-03-31T12:11:37;21.00;62.70
40538;DHT22;27925;41.874;12.526;2023-03-31T12:14:26;21.00;62.10
40538;DHT22;27925;41.874;12.526;2023-03-31T12:17:11;20.90;62.70
40538;DHT22;27925;41.874;12.526;2023-03-31T12:22:28;20.80;62.60
40538;DHT22;27925;41.874;12.526;2023-03-31T12:24:56;20.90;62.10
40538;DHT22;27925;41.874;12.526;2023-03-31T12:27:39;20.90;62.30
40538;DHT22;27925;41.874;12.526;2023-03-31T12:32:46;21.10;62.60
40538;DHT22;27925;41.874;12.526;2023-03-31T12:40:38;21.10;61.80
40538;DHT22;27925;41.874;12.526;2023-03-31T13:02:22;20.90;62.50
40538;DHT22;27925;41.874;12.526;2023-03-31T13:04:48;20.80;63.00
40538;DHT22;27925;41.874;12.526;2023-03-31T17:15:35;18.60;67.60
40538;DHT22;27925;41.874;12.526;2023-03-31T17:18:02;18.40;68.00
40538;DHT22;27925;41.874;12.526;2023-03-31T17:20:29;18.30;68.10
40538;DHT22;27925;41.874;12.526;2023-03-31T17:22:55;18.30;68.30
40538;DHT22;27925;41.874;12.526;2023-03-31T17:25:21;18.20;68.80
40538;DHT22;27925;41.874;12.526;2023-03-31T17:27:47;18.10;68.70
40538;DHT22;27925;41.874;12.526;2023-03-31T17:30:13;18.00;69.00
40538;DHT22;27925;41.874;12.526;2023-03-31T17:32:39;17.90;69.20
40538;DHT22;27925;41.874;12.526;2023-03-31T17:35:06;17.90;69.30
40538;DHT22;27925;41.874;12.526;2023-03-31T17:37:32;17.80;69.90
40538;DHT22;27925;41.874;12.526;2023-03-31T17:39:58;17.70;70.10
40538;DHT22;27925;41.874;12.526;2023-03-31T17:42:25;17.60;70.40
40538;DHT22;27925;41.874;12.526;2023-03-31T17:44:51;17.60;70.70
40538;DHT22;27925;41.874;12.526;2023-03-31T17:47:18;17.50;70.80
40538;DHT22;27925;41.874;12.526;2023-03-31T17:49:45;17.50;71.20
40538;DHT22;27925;41.874;12.526;2023-03-31T17:52:11;17.40;71.50
40538;DHT22;27925;41.874;12.526;2023-03-31T17:54:38;17.40;71.70
40538;DHT22;27925;41.874;12.526;2023-03-31T17:57:04;17.40;71.60
40538;DHT22;27925;41.874;12.526;2023-03-31T17:59:29;17.30;72.00
40538;DHT22;27925;41.874;12.526;2023-03-31T18:01:55;17.30;72.30
40538;DHT22;27925;41.874;12.526;2023-03-31T18:04:21;17.30;72.30
40538;DHT22;27925;41.874;12.526;2023-03-31T18:06:47;17.20;72.30
40538;DHT22;27925;41.874;12.526;2023-03-31T18:09:14;17.20;72.70
40538;DHT22;27925;41.874;12.526;2023-03-31T18:11:41;17.10;73.20
40538;DHT22;27925;41.874;12.526;2023-03-31T18:14:07;17.10;73.10
40538;DHT22;27925;41.874;12.526;2023-03-31T18:16:33;17.10;73.40
40538;DHT22;27925;41.874;12.526;2023-03-31T18:18:59;17.00;73.30
40538;DHT22;27925;41.874;12.526;2023-03-31T18:21:24;17.00;73.50
40538;DHT22;27925;41.874;12.526;2023-03-31T18:23:51;17.00;73.80
40538;DHT22;27925;41.874;12.526;2023-03-31T18:26:20;17.10;74.20
40538;DHT22;27925;41.874;12.526;2023-03-31T18:28:46;17.00;74.00
40538;DHT22;27925;41.874;12.526;2023-03-31T18:31:11;17.00;74.30
40538;DHT22;27925;41.874;12.526;2023-03-31T18:33:38;17.00;74.40
40538;DHT22;27925;41.874;12.526;2023-03-31T18:36:05;16.90;74.50
40538;DHT22;27925;41.874;12.526;2023-03-31T18:38:32;16.90;74.80
40538;DHT22;27925;41.874;12.526;2023-03-31T18:40:58;16.90;75.10
40538;DHT22;27925;41.874;12.526;2023-03-31T18:43:24;16.90;75.50
40538;DHT22;27925;41.874;12.526;2023-03-31T18:45:52;16.90;75.60
40538;DHT22;27925;41.874;12.526;2023-03-31T18:48:19;16.80;75.70
40538;DHT22;27925;41.874;12.526;2023-03-31T18:50:47;16.70;75.80
40538;DHT22;27925;41.874;12.526;2023-03-31T18:53:13;16.70;76.30
40538;DHT22;27925;41.874;12.526;2023-03-31T18:55:47;16.70;76.40
40538;DHT22;27925;41.874;12.526;2023-03-31T18:58:13;16.70;76.40
40538;DHT22;27925;41.874;12.526;2023-03-31T19:00:39;16.70;76.60
40538;DHT22;27925;41.874;12.526;2023-03-31T19:03:05;16.70;76.60
40538;DHT22;27925;41.874;12.526;2023-03-31T19:05:32;16.70;77.20
40538;DHT22;27925;41.874;12.526;2023-03-31T19:07:58;16.70;77.00
40538;DHT22;27925;41.874;12.526;2023-03-31T19:10:25;16.60;77.10
40538;DHT22;27925;41.874;12.526;2023-03-31T19:12:50;16.60;77.30
40538;DHT22;27925;41.874;12.526;2023-03-31T19:15:16;16.60;77.70
40538;DHT22;27925;41.874;12.526;2023-03-31T19:17:42;16.60;77.50
40538;DHT22;27925;41.874;12.526;2023-03-31T19:20:08;16.50;77.70
40538;DHT22;27925;41.874;12.526;2023-03-31T19:22:47;16.60;77.90
40538;DHT22;27925;41.874;12.526;2023-03-31T19:25:15;16.60;78.30
40538;DHT22;27925;41.874;12.526;2023-03-31T19:27:42;16.50;77.90
40538;DHT22;27925;41.874;12.526;2023-03-31T19:30:20;16.50;78.20
40538;DHT22;27925;41.874;12.526;2023-03-31T19:32:47;16.50;78.60
40538;DHT22;27925;41.874;12.526;2023-03-31T19:35:15;16.50;78.80
40538;DHT22;27925;41.874;12.526;2023-03-31T19:37:41;16.40;79.00
40538;DHT22;27925;41.874;12.526;2023-03-31T19:40:07;16.40;79.20
40538;DHT22;27925;41.874;12.526;2023-03-31T19:42:33;16.40;79.70
40538;DHT22;27925;41.874;12.526;2023-03-31T19:44:59;16.40;79.60
40538;DHT22;27925;41.874;12.526;2023-03-31T19:47:24;16.40;79.80
40538;DHT22;27925;41.874;12.526;2023-03-31T19:49:50;16.30;80.00
40538;DHT22;27925;41.874;12.526;2023-03-31T19:52:16;16.30;80.50
40538;DHT22;27925;41.874;12.526;2023-03-31T19:54:42;16.20;80.80
40538;DHT22;27925;41.874;12.526;2023-03-31T19:57:09;16.20;81.00
40538;DHT22;27925;41.874;12.526;2023-03-31T19:59:35;16.20;81.50
40538;DHT22;27925;41.874;12.526;2023-03-31T20:02:01;16.10;81.80
40538;DHT22;27925;41.874;12.526;2023-03-31T20:04:30;16.10;82.00
40538;DHT22;27925;41.874;12.526;2023-03-31T20:06:56;16.10;82.20
40538;DHT22;27925;41.874;12.526;2023-03-31T20:09:22;16.10;82.50
40538;DHT22;27925;41.874;12.526;2023-03-31T20:11:49;16.10;82.70
40538;DHT22;27925;41.874;12.526;2023-03-31T20:14:15;16.20;83.40
40538;DHT22;27925;41.874;12.526;2023-03-31T20:16:42;16.20;82.90
40538;DHT22;27925;41.874;12.526;2023-03-31T20:19:10;16.20;82.90
40538;DHT22;27925;41.874;12.526;2023-03-31T20:21:37;16.30;83.50
40538;DHT22;27925;41.874;12.526;2023-03-31T20:24:04;16.30;83.20
40538;DHT22;27925;41.874;12.526;2023-03-31T20:26:32;16.30;83.50
40538;DHT22;27925;41.874;12.526;2023-03-31T20:29:00;16.30;83.70
40538;DHT22;27925;41.874;12.526;2023-03-31T20:31:29;16.20;83.70
40538;DHT22;27925;41.874;12.526;2023-03-31T20:33:56;16.20;84.00
40538;DHT22;27925;41.874;12.526;2023-03-31T20:36:24;16.10;84.10
40538;DHT22;27925;41.874;12.526;2023-03-31T20:38:51;16.10;84.60
40538;DHT22;27925;41.874;12.526;2023-03-31T20:41:20;16.10;84.60
40538;DHT22;27925;41.874;12.526;2023-03-31T20:43:46;16.10;84.60
40538;DHT22;27925;41.874;12.526;2023-03-31T20:46:13;16.20;85.00
40538;DHT22;27925;41.874;12.526;2023-03-31T20:48:39;16.20;85.00
40538;DHT22;27925;41.874;12.526;2023-03-31T20:51:08;16.20;84.70
40538;DHT22;27925;41.874;12.526;2023-03-31T20:53:34;16.20;84.80
40538;DHT22;27925;41.874;12.526;2023-03-31T20:56:15;16.30;85.00
40538;DHT22;27925;41.874;12.526;2023-03-31T20:58:41;16.30;85.20
40538;DHT22;27925;41.874;12.526;2023-03-31T21:01:08;16.30;85.00
40538;DHT22;27925;41.874;12.526;2023-03-31T21:03:33;16.30;85.10
40538;DHT22;27925;41.874;12.526;2023-03-31T21:06:01;16.30;85.30
40538;DHT22;27925;41.874;12.526;2023-03-31T21:08:28;16.30;85.10
40538;DHT22;27925;41.874;12.526;2023-03-31T21:10:54;16.30;85.20
40538;DHT22;27925;41.874;12.526;2023-03-31T21:13:23;16.30;85.50
40538;DHT22;27925;41.874;12.526;2023-03-31T21:15:49;16.30;85.30
40538;DHT22;27925;41.874;12.526;2023-03-31T21:18:18;16.30;85.30
40538;DHT22;27925;41.874;12.526;2023-03-31T21:20:52;16.30;85.40
40538;DHT22;27925;41.874;12.526;2023-03-31T21:23:18;16.30;85.90
40538;DHT22;27925;41.874;12.526;2023-03-31T21:25:46;16.30;85.40
40538;DHT22;27925;41.874;12.526;2023-03-31T21:28:13;16.30;85.50